sensor_id;sensor_type;location;lat;lon;timestamp;pressure;altitude;pressure_sealevel;temperature;humidity
8160;BME280;27404;52.398;9.646;2023-11-21T00:02:20;100283.28;;;6.77;100.00
8160;BME280;27404;52.398;9.646;2023-11-21T00:04:46;100286.88;;;6.77;100.00
8160;BME280;27404;52.398;9.646;2023-11-21T00:07:13;100291.69;;;6.75;100.00
8160;BME280;27404;52.398;9.646;2023-11-21T00:09:39;100293.53;;;6.75;100.00
8160;BME280;27404;52.398;9.646;2023-11-21T00:12:05;100290.22;;;6.73;100.00
8160;BME280;27404;52.398;9.646;2023-11-21T00:14:31;100292.28;;;6.77;100.00
8160;BME280;27404;52.398;9.646;2023-11-21T00:16:56;100290.00;;;6.74;100.00
8160;BME280;27404;52.398;9.646;2023-11-21T00:19:22;100290.66;;;6.70;100.00
8160;BME280;27404;52.398;9.646;2023-11-21T00:21:47;100293.97;;;6.72;100.00
8160;BME280;27404;52.398;9.646;2023-11-21T00:24:13;100298.00;;;6.69;100.00
8160;BME280;27404;52.398;9.646;2023-11-21T00:26:41;100295.44;;;6.74;100.00
8160;BME280;27404;52.398;9.646;2023-11-21T00:29:06;100294.41;;;6.75;100.00
8160;BME280;27404;52.398;9.646;2023-11-21T00:31:36;100289.41;;;6.72;100.00
8160;BME280;27404;52.398;9.646;2023-11-21T00:34:04;100291.28;;;6.72;100.00
8160;BME280;27404;52.398;9.646;2023-11-21T00:36:33;100295.03;;;6.71;100.00
8160;BME280;27404;52.398;9.646;2023-11-21T00:38:58;100288.78;;;6.70;100.00
8160;BME280;27404;52.398;9.646;2023-11-21T00:41:25;100292.72;;;6.74;100.00
8160;BME280;27404;52.398;9.646;2023-11-21T00:43:53;100291.06;;;6.73;100.00
8160;BME280;27404;52.398;9.646;2023-11-21T00:46:19;100298.19;;;6.67;100.00
8160;BME280;27404;52.398;9.646;2023-11-21T00:48:44;100300.75;;;6.62;100.00
8160;BME280;27404;52.398;9.646;2023-11-21T00:51:10;100301.34;;;6.64;100.00
8160;BME280;27404;52.398;9.646;2023-11-21T00:53:35;100299.91;;;6.62;100.00
8160;BME280;27404;52.398;9.646;2023-11-21T00:56:01;100305.53;;;6.67;100.00
8160;BME280;27404;52.398;9.646;2023-11-21T00:58:28;100310.50;;;6.70;100.00
8160;BME280;27404;52.398;9.646;2023-11-21T01:00:53;100310.50;;;6.70;100.00
8160;BME280;27404;52.398;9.646;2023-11-21T01:03:19;100315.34;;;6.68;100.00
8160;BME280;27404;52.398;9.646;2023-11-21T01:05:45;100315.53;;;6.66;100.00
8160;BME280;27404;52.398;9.646;2023-11-21T01:08:11;100317.81;;;6.70;100.00
8160;BME280;27404;52.398;9.646;2023-11-21T01:10:37;100314.28;;;6.69;100.00
8160;BME280;27404;52.398;9.646;2023-11-21T01:13:03;100316.56;;;6.72;100.00
8160;BME280;27404;52.398;9.646;2023-11-21T01:15:32;100324.09;;;6.70;100.00
8160;BME280;27404;52.398;9.646;2023-11-21T01:17:58;100325.53;;;6.73;100.00
8160;BME280;27404;52.398;9.646;2023-11-21T01:20:23;100327.44;;;6.72;100.00
8160;BME280;27404;52.398;9.646;2023-11-21T01:22:49;100332.00;;;6.72;100.00
8160;BME280;27404;52.398;9.646;2023-11-21T01:25:15;100336.41;;;6.73;100.00
8160;BME280;27404;52.398;9.646;2023-11-21T01:27:42;100333.88;;;6.78;100.00
8160;BME280;27404;52.398;9.646;2023-11-21T01:30:07;100333.03;;;6.77;100.00
8160;BME280;27404;52.398;9.646;2023-11-21T01:32:34;100338.91;;;6.74;100.00
8160;BME280;27404;52.398;9.646;2023-11-21T01:35:00;100341.63;;;6.74;100.00
8160;BME280;27404;52.398;9.646;2023-11-21T01:37:25;100339.97;;;6.73;100.00
8160;BME280;27404;52.398;9.646;2023-11-21T01:39:54;100342.25;;;6.76;100.00
8160;BME280;27404;52.398;9.646;2023-11-21T01:42:20;100349.53;;;6.76;100.00
8160;BME280;27404;52.398;9.646;2023-11-21T01:44:46;100340.34;;;6.77;100.00
8160;BME280;27404;52.398;9.646;2023-11-21T01:47:13;100345.78;;;6.77;100.00
8160;BME280;27404;52.398;9.646;2023-11-21T01:49:38;100343.06;;;6.77;100.00
8160;BME280;27404;52.398;9.646;2023-11-21T01:52:04;100345.56;;;6.78;100.00
8160;BME280;27404;52.398;9.646;2023-11-21T01:54:31;100348.28;;;6.78;100.00
8160;BME280;27404;52.398;9.646;2023-11-21T01:57:00;100336.81;;;6.76;100.00
8160;BME280;27404;52.398;9.646;2023-11-21T01:59:34;100340.16;;;6.78;100.00
8160;BME280;27404;52.398;9.646;2023-11-21T02:02:00;100342.25;;;6.76;100.00
8160;BME280;27404;52.398;9.646;2023-11-21T02:04:25;100339.13;;;6.73;100.00
8160;BME280;27404;52.398;9.646;2023-11-21T02:06:51;100341.19;;;6.77;100.00
8160;BME280;27404;52.398;9.646;2023-11-21T02:09:17;100347.44;;;6.78;100.00
8160;BME280;27404;52.398;9.646;2023-11-21T02:11:43;100348.94;;;6.74;100.00
8160;BME280;27404;52.398;9.646;2023-11-21T02:14:09;100350.22;;;6.71;100.00
8160;BME280;27404;52.398;9.646;2023-11-21T02:16:35;100361.28;;;6.70;100.00
8160;BME280;27404;52.398;9.646;2023-11-21T02:19:03;100358.38;;;6.71;100.00
8160;BME280;27404;52.398;9.646;2023-11-21T02:21:32;100348.13;;;6.73;100.00
8160;BME280;27404;52.398;9.646;2023-11-21T02:23:58;100356.25;;;6.73;100.00
8160;BME280;27404;52.398;9.646;2023-11-21T02:26:24;100355.22;;;6.74;100.00
8160;BME280;27404;52.398;9.646;2023-11-21T02:28:51;100358.38;;;6.71;100.00
8160;BME280;27404;52.398;9.646;2023-11-21T02:31:18;100365.66;;;6.71;100.00
8160;BME280;27404;52.398;9.646;2023-11-21T02:33:44;100359.41;;;6.70;100.00
8160;BME280;27404;52.398;9.646;2023-11-21T02:36:09;100360.03;;;6.72;100.00
8160;BME280;27404;52.398;9.646;2023-11-21T02:38:35;100366.09;;;6.74;100.00
8160;BME280;27404;52.398;9.646;2023-11-21T02:41:00;100371.50;;;6.74;100.00
8160;BME280;27404;52.398;9.646;2023-11-21T02:43:26;100371.72;;;6.73;100.00
8160;BME280;27404;52.398;9.646;2023-11-21T02:45:51;100372.34;;;6.75;100.00
8160;BME280;27404;52.398;9.646;2023-11-21T02:48:17;100371.28;;;6.76;100.00
8160;BME280;27404;52.398;9.646;2023-11-21T02:50:42;100368.13;;;6.79;100.00
8160;BME280;27404;52.398;9.646;2023-11-21T02:53:09;100378.56;;;6.82;100.00
8160;BME280;27404;52.398;9.646;2023-11-21T02:55:36;100371.03;;;6.84;100.00
8160;BME280;27404;52.398;9.646;2023-11-21T02:58:02;100365.59;;;6.84;100.00
8160;BME280;27404;52.398;9.646;2023-11-21T03:00:29;100374.38;;;6.86;100.00
8160;BME280;27404;52.398;9.646;2023-11-21T03:02:55;100374.16;;;6.88;100.00
8160;BME280;27404;52.398;9.646;2023-11-21T03:05:21;100385.84;;;6.88;100.00
8160;BME280;27404;52.398;9.646;2023-11-21T03:07:47;100387.13;;;6.86;100.00
8160;BME280;27404;52.398;9.646;2023-11-21T03:10:12;100390.06;;;6.84;100.00
8160;BME280;27404;52.398;9.646;2023-11-21T03:12:39;100395.06;;;6.87;100.00
8160;BME280;27404;52.398;9.646;2023-11-21T03:15:05;100396.53;;;6.90;100.00
8160;BME280;27404;52.398;9.646;2023-11-21T03:17:31;100388.38;;;6.90;100.00
8160;BME280;27404;52.398;9.646;2023-11-21T03:19:59;100395.22;;;6.92;100.00
8160;BME280;27404;52.398;9.646;2023-11-21T03:22:25;100405.69;;;6.95;100.00
8160;BME280;27404;52.398;9.646;2023-11-21T03:24:50;100402.97;;;6.95;100.00
8160;BME280;27404;52.398;9.646;2023-11-21T03:27:16;100397.53;;;6.95;100.00
8160;BME280;27404;52.398;9.646;2023-11-21T03:29:41;100408.81;;;6.92;100.00
8160;BME280;27404;52.398;9.646;2023-11-21T03:32:07;100407.56;;;6.95;100.00
8160;BME280;27404;52.398;9.646;2023-11-21T03:34:32;100403.19;;;6.94;100.00
8160;BME280;27404;52.398;9.646;2023-11-21T03:36:58;100414.25;;;6.92;100.00
8160;BME280;27404;52.398;9.646;2023-11-21T03:39:24;100423.25;;;6.93;100.00
8160;BME280;27404;52.398;9.646;2023-11-21T03:41:51;100425.75;;;6.94;100.00
8160;BME280;27404;52.398;9.646;2023-11-21T03:44:17;100420.53;;;6.93;100.00
8160;BME280;27404;52.398;9.646;2023-11-21T03:46:43;100412.16;;;6.94;100.00
8160;BME280;27404;52.398;9.646;2023-11-21T03:49:09;100420.94;;;6.96;100.00
8160;BME280;27404;52.398;9.646;2023-11-21T03:51:36;100425.50;;;6.96;100.00
8160;BME280;27404;52.398;9.646;2023-11-21T03:54:02;100419.88;;;6.97;100.00
8160;BME280;27404;52.398;9.646;2023-11-21T03:56:28;100425.09;;;6.99;100.00
8160;BME280;27404;52.398;9.646;2023-11-21T03:58:53;100420.94;;;6.96;100.00
8160;BME280;27404;52.398;9.646;2023-11-21T04:01:21;100428.41;;;7.01;100.00
8160;BME280;27404;52.398;9.646;2023-11-21T04:03:48;100427.19;;;6.97;100.00
8160;BME280;27404;52.398;9.646;2023-11-21T04:06:13;100437.00;;;6.98;100.00
8160;BME280;27404;52.398;9.646;2023-11-21T04:08:39;100437.00;;;6.98;100.00
8160;BME280;27404;52.398;9.646;2023-11-21T04:11:04;100442.84;;;7.02;100.00
8160;BME280;27404;52.398;9.646;2023-11-21T04:13:30;100443.06;;;7.00;100.00
8160;BME280;27404;52.398;9.646;2023-11-21T04:15:56;100446.22;;;6.97;100.00
8160;BME280;27404;52.398;9.646;2023-11-21T04:18:21;100444.72;;;7.01;100.00
8160;BME280;27404;52.398;9.646;2023-11-21T04:20:48;100452.06;;;7.01;100.00
8160;BME280;27404;52.398;9.646;2023-11-21T04:23:14;100457.50;;;7.01;100.00
8160;BME280;27404;52.398;9.646;2023-11-21T04:25:40;100455.81;;;7.00;100.00
8160;BME280;27404;52.398;9.646;2023-11-21T04:28:06;100458.97;;;6.96;100.00
8160;BME280;27404;52.398;9.646;2023-11-21T04:30:31;100467.34;;;6.95;100.00
8160;BME280;27404;52.398;9.646;2023-11-21T04:32:58;100462.97;;;6.94;100.00
8160;BME280;27404;52.398;9.646;2023-11-21T04:35:23;100471.72;;;6.96;100.00
8160;BME280;27404;52.398;9.646;2023-11-21T04:37:49;100470.06;;;6.95;100.00
8160;BME280;27404;52.398;9.646;2023-11-21T04:40:16;100480.50;;;6.98;100.00
8160;BME280;27404;52.398;9.646;2023-11-21T04:42:42;100473.38;;;6.97;100.00
8160;BME280;27404;52.398;9.646;2023-11-21T04:45:08;100482.00;;;6.94;100.00
8160;BME280;27404;52.398;9.646;2023-11-21T04:47:35;100486.97;;;6.97;100.00
8160;BME280;27404;52.398;9.646;2023-11-21T04:50:01;100484.47;;;6.95;100.00
8160;BME280;27404;52.398;9.646;2023-11-21T04:52:26;100495.34;;;6.95;100.00
8160;BME280;27404;52.398;9.646;2023-11-21T04:54:51;100493.69;;;6.94;100.00
8160;BME280;27404;52.398;9.646;2023-11-21T04:57:20;100495.97;;;6.97;100.00
8160;BME280;27404;52.398;9.646;2023-11-21T04:59:45;100489.09;;;6.95;100.00
8160;BME280;27404;52.398;9.646;2023-11-21T05:02:11;100506.66;;;6.92;100.00
8160;BME280;27404;52.398;9.646;2023-11-21T05:04:37;100504.78;;;6.93;100.00
8160;BME280;27404;52.398;9.646;2023-11-21T05:07:03;100511.88;;;6.94;100.00
8160;BME280;27404;52.398;9.646;2023-11-21T05:09:28;100513.97;;;6.92;100.00
8160;BME280;27404;52.398;9.646;2023-11-21T05:11:57;100510.03;;;6.88;100.00
8160;BME280;27404;52.398;9.646;2023-11-21T05:14:22;100512.09;;;6.92;100.00
8160;BME280;27404;52.398;9.646;2023-11-21T05:16:48;100515.22;;;6.89;100.00
8160;BME280;27404;52.398;9.646;2023-11-21T05:19:13;100513.56;;;6.88;100.00
8160;BME280;27404;52.398;9.646;2023-11-21T05:21:39;100516.28;;;6.88;100.00
8160;BME280;27404;52.398;9.646;2023-11-21T05:24:05;100515.66;;;6.93;100.00
8160;BME280;27404;52.398;9.646;2023-11-21T05:26:30;100521.91;;;6.93;100.00
8160;BME280;27404;52.398;9.646;2023-11-21T05:28:56;100519.63;;;6.90;100.00
8160;BME280;27404;52.398;9.646;2023-11-21T05:31:22;100530.06;;;6.93;100.00
8160;BME280;27404;52.398;9.646;2023-11-21T05:33:47;100537.59;;;6.91;100.00
8160;BME280;27404;52.398;9.646;2023-11-21T05:36:12;100530.91;;;6.87;100.00
8160;BME280;27404;52.398;9.646;2023-11-21T05:38:38;100537.63;;;6.85;100.00
8160;BME280;27404;52.398;9.646;2023-11-21T05:41:04;100541.16;;;6.85;100.00
8160;BME280;27404;52.398;9.646;2023-11-21T05:43:30;100544.72;;;6.86;100.00
8160;BME280;27404;52.398;9.646;2023-11-21T05:45:57;100549.13;;;6.87;100.00
8160;BME280;27404;52.398;9.646;2023-11-21T05:48:23;100553.50;;;6.88;100.00
8160;BME280;27404;52.398;9.646;2023-11-21T05:50:49;100552.88;;;6.86;100.00
8160;BME280;27404;52.398;9.646;2023-11-21T05:53:15;100556.66;;;6.85;100.00
8160;BME280;27404;52.398;9.646;2023-11-21T05:55:41;100556.41;;;6.86;100.00
8160;BME280;27404;52.398;9.646;2023-11-21T05:58:07;100564.78;;;6.85;100.00
8160;BME280;27404;52.398;9.646;2023-11-21T06:00:33;100557.28;;;6.87;100.00
8160;BME280;27404;52.398;9.646;2023-11-21T06:02:59;100564.16;;;6.89;100.00
8160;BME280;27404;52.398;9.646;2023-11-21T06:05:25;100572.91;;;6.91;100.00
8160;BME280;27404;52.398;9.646;2023-11-21T06:07:52;100576.50;;;6.92;100.00
8160;BME280;27404;52.398;9.646;2023-11-21T06:10:22;100571.06;;;6.85;100.00
8160;BME280;27404;52.398;9.646;2023-11-21T06:12:49;100580.88;;;6.86;100.00
8160;BME280;27404;52.398;9.646;2023-11-21T06:15:15;100583.59;;;6.86;100.00
8160;BME280;27404;52.398;9.646;2023-11-21T06:17:42;100584.00;;;6.90;100.00
8160;BME280;27404;52.398;9.646;2023-11-21T06:20:09;100590.06;;;6.92;100.00
8160;BME280;27404;52.398;9.646;2023-11-21T06:22:37;100595.09;;;6.95;100.00
8160;BME280;27404;52.398;9.646;2023-11-21T06:25:03;100598.84;;;6.94;100.00
8160;BME280;27404;52.398;9.646;2023-11-21T06:27:33;100601.59;;;6.80;100.00
8160;BME280;27404;52.398;9.646;2023-11-21T06:29:59;100599.28;;;6.84;100.00
8160;BME280;27404;52.398;9.646;2023-11-21T06:32:25;100605.13;;;6.81;100.00
8160;BME280;27404;52.398;9.646;2023-11-21T06:34:51;100608.91;;;6.87;100.00
8160;BME280;27404;52.398;9.646;2023-11-21T06:37:20;100616.63;;;6.83;100.00
8160;BME280;27404;52.398;9.646;2023-11-21T06:39:48;100619.75;;;6.87;100.00
8160;BME280;27404;52.398;9.646;2023-11-21T06:42:14;100615.81;;;6.82;100.00
8160;BME280;27404;52.398;9.646;2023-11-21T06:44:40;100627.09;;;6.79;100.00
8160;BME280;27404;52.398;9.646;2023-11-21T06:47:07;100630.84;;;6.92;100.00
8160;BME280;27404;52.398;9.646;2023-11-21T06:49:32;100642.94;;;6.96;100.00
8160;BME280;27404;52.398;9.646;2023-11-21T06:51:58;100644.66;;;6.70;100.00
8160;BME280;27404;52.398;9.646;2023-11-21T06:54:24;100653.22;;;6.67;100.00
8160;BME280;27404;52.398;9.646;2023-11-21T06:56:50;100661.97;;;6.56;100.00
8160;BME280;27404;52.398;9.646;2023-11-21T06:59:15;100666.34;;;6.30;100.00
8160;BME280;27404;52.398;9.646;2023-11-21T07:01:41;100674.06;;;6.19;100.00
8160;BME280;27404;52.398;9.646;2023-11-21T07:04:07;100678.88;;;6.17;100.00
8160;BME280;27404;52.398;9.646;2023-11-21T07:06:34;100681.31;;;6.05;100.00
8160;BME280;27404;52.398;9.646;2023-11-21T07:09:00;100686.34;;;6.08;100.00
8160;BME280;27404;52.398;9.646;2023-11-21T07:11:26;100688.97;;;5.88;100.00
8160;BME280;27404;52.398;9.646;2023-11-21T07:13:52;100696.69;;;5.85;100.00
8160;BME280;27404;52.398;9.646;2023-11-21T07:16:18;100702.13;;;5.91;100.00
8160;BME280;27404;52.398;9.646;2023-11-21T07:18:44;100703.97;;;5.84;100.00
8160;BME280;27404;52.398;9.646;2023-11-21T07:21:10;100708.41;;;5.92;100.00
8160;BME280;27404;52.398;9.646;2023-11-21T07:23:37;100705.47;;;5.87;100.00
8160;BME280;27404;52.398;9.646;2023-11-21T07:26:03;100708.94;;;5.74;100.00
8160;BME280;27404;52.398;9.646;2023-11-21T07:28:34;100710.44;;;5.76;100.00
8160;BME280;27404;52.398;9.646;2023-11-21T07:30:59;100724.00;;;5.76;100.00
8160;BME280;27404;52.398;9.646;2023-11-21T07:33:25;100721.47;;;5.75;100.00
8160;BME280;27404;52.398;9.646;2023-11-21T07:35:51;100725.69;;;5.84;100.00
8160;BME280;27404;52.398;9.646;2023-11-21T07:38:17;100733.41;;;5.81;100.00
8160;BME280;27404;52.398;9.646;2023-11-21T07:40:43;100744.19;;;5.74;100.00
8160;BME280;27404;52.398;9.646;2023-11-21T07:43:08;100744.19;;;5.67;100.00
8160;BME280;27404;52.398;9.646;2023-11-21T07:45:34;100743.13;;;5.68;100.00
8160;BME280;27404;52.398;9.646;2023-11-21T07:47:59;100755.44;;;5.64;100.00
8160;BME280;27404;52.398;9.646;2023-11-21T07:50:28;100755.81;;;5.61;100.00
8160;BME280;27404;52.398;9.646;2023-11-21T07:52:54;100757.91;;;5.59;100.00
8160;BME280;27404;52.398;9.646;2023-11-21T07:55:20;100757.91;;;5.59;100.00
8160;BME280;27404;52.398;9.646;2023-11-21T07:57:45;100772.47;;;5.51;100.00
8160;BME280;27404;52.398;9.646;2023-11-21T08:00:11;100772.22;;;5.46;100.00
8160;BME280;27404;52.398;9.646;2023-11-21T08:02:39;100772.41;;;5.44;100.00
8160;BME280;27404;52.398;9.646;2023-11-21T08:05:07;100782.59;;;5.42;100.00
8160;BME280;27404;52.398;9.646;2023-11-21T08:07:33;100788.03;;;5.42;100.00
8160;BME280;27404;52.398;9.646;2023-11-21T08:09:59;100795.38;;;5.48;100.00
8160;BME280;27404;52.398;9.646;2023-11-21T08:12:24;100803.31;;;5.50;100.00
8160;BME280;27404;52.398;9.646;2023-11-21T08:14:51;100804.94;;;5.44;100.00
8160;BME280;27404;52.398;9.646;2023-11-21T08:17:16;100811.59;;;5.42;100.00
8160;BME280;27404;52.398;9.646;2023-11-21T08:19:42;100820.25;;;5.52;100.00
8160;BME280;27404;52.398;9.646;2023-11-21T08:22:07;100820.91;;;5.61;100.00
8160;BME280;27404;52.398;9.646;2023-11-21T08:24:33;100821.41;;;5.71;100.00
8160;BME280;27404;52.398;9.646;2023-11-21T08:26:59;100821.94;;;5.60;100.00
8160;BME280;27404;52.398;9.646;2023-11-21T08:29:24;100820.53;;;5.71;100.00
8160;BME280;27404;52.398;9.646;2023-11-21T08:31:49;100830.34;;;5.72;100.00
8160;BME280;27404;52.398;9.646;2023-11-21T08:34:15;100826.59;;;5.73;100.00
8160;BME280;27404;52.398;9.646;2023-11-21T08:36:43;100831.41;;;5.71;100.00
8160;BME280;27404;52.398;9.646;2023-11-21T08:39:09;100821.59;;;5.70;100.00
8160;BME280;27404;52.398;9.646;2023-11-21T08:41:35;100821.59;;;5.70;100.00
8160;BME280;27404;52.398;9.646;2023-11-21T08:44:02;100826.59;;;5.73;100.00
8160;BME280;27404;52.398;9.646;2023-11-21T08:46:32;100826.06;;;5.84;100.00
8160;BME280;27404;52.398;9.646;2023-11-21T08:49:00;100821.91;;;5.88;100.00
8160;BME280;27404;52.398;9.646;2023-11-21T08:51:26;100824.69;;;5.95;100.00
8160;BME280;27404;52.398;9.646;2023-11-21T08:53:51;100833.28;;;6.05;100.00
8160;BME280;27404;52.398;9.646;2023-11-21T08:56:18;100834.03;;;5.92;100.00
8160;BME280;27404;52.398;9.646;2023-11-21T08:58:45;100847.59;;;5.92;100.00
8160;BME280;27404;52.398;9.646;2023-11-21T09:01:12;100843.53;;;5.75;100.00
8160;BME280;27404;52.398;9.646;2023-11-21T09:03:38;100848.00;;;5.89;100.00
8160;BME280;27404;52.398;9.646;2023-11-21T09:06:04;100848.94;;;6.03;100.00
8160;BME280;27404;52.398;9.646;2023-11-21T09:08:29;100861.81;;;5.95;100.00
8160;BME280;27404;52.398;9.646;2023-11-21T09:10:55;100860.44;;;6.05;100.00
8160;BME280;27404;52.398;9.646;2023-11-21T09:13:20;100870.66;;;6.03;100.00
8160;BME280;27404;52.398;9.646;2023-11-21T09:15:46;100871.38;;;5.90;100.00
8160;BME280;27404;52.398;9.646;2023-11-21T09:18:14;100871.22;;;5.92;100.00
8160;BME280;27404;52.398;9.646;2023-11-21T09:20:43;100883.59;;;6.01;100.00
8160;BME280;27404;52.398;9.646;2023-11-21T09:23:09;100887.91;;;5.96;100.00
8160;BME280;27404;52.398;9.646;2023-11-21T09:25:35;100888.22;;;5.79;100.00
8160;BME280;27404;52.398;9.646;2023-11-21T09:28:03;100887.38;;;5.78;100.00
8160;BME280;27404;52.398;9.646;2023-11-21T09:30:33;100886.94;;;5.75;100.00
8160;BME280;27404;52.398;9.646;2023-11-21T09:32:58;100911.34;;;5.75;100.00
8160;BME280;27404;52.398;9.646;2023-11-21T09:35:24;100902.28;;;5.89;100.00
8160;BME280;27404;52.398;9.646;2023-11-21T09:37:50;100908.16;;;5.93;100.00
8160;BME280;27404;52.398;9.646;2023-11-21T09:40:21;100911.84;;;5.85;100.00
8160;BME280;27404;52.398;9.646;2023-11-21T09:42:57;100922.69;;;5.85;100.00
8160;BME280;27404;52.398;9.646;2023-11-21T09:45:32;100925.50;;;5.99;100.00
8160;BME280;27404;52.398;9.646;2023-11-21T09:48:00;100920.53;;;6.02;100.00
8160;BME280;27404;52.398;9.646;2023-11-21T09:50:26;100929.16;;;6.13;100.00
8160;BME280;27404;52.398;9.646;2023-11-21T09:52:59;100931.47;;;6.09;100.00
8160;BME280;27404;52.398;9.646;2023-11-21T09:55:32;100933.63;;;6.20;100.00
8160;BME280;27404;52.398;9.646;2023-11-21T09:58:02;100940.97;;;6.27;100.00
8160;BME280;27404;52.398;9.646;2023-11-21T10:00:28;100941.78;;;6.20;100.00
8160;BME280;27404;52.398;9.646;2023-11-21T10:02:58;100945.78;;;6.31;100.00
8160;BME280;27404;52.398;9.646;2023-11-21T10:05:24;100948.34;;;6.40;100.00
8160;BME280;27404;52.398;9.646;2023-11-21T10:07:50;100954.13;;;6.30;100.00
8160;BME280;27404;52.398;9.646;2023-11-21T10:10:18;100956.25;;;6.34;100.00
8160;BME280;27404;52.398;9.646;2023-11-21T10:12:49;100960.84;;;6.34;100.00
8160;BME280;27404;52.398;9.646;2023-11-21T10:15:21;100959.16;;;6.33;100.00
8160;BME280;27404;52.398;9.646;2023-11-21T10:17:49;100966.25;;;6.34;100.00
8160;BME280;27404;52.398;9.646;2023-11-21T10:20:14;100971.28;;;6.37;100.00
8160;BME280;27404;52.398;9.646;2023-11-21T10:22:41;100972.31;;;6.29;100.00
8160;BME280;27404;52.398;9.646;2023-11-21T10:25:10;100972.00;;;6.46;100.00
8160;BME280;27404;52.398;9.646;2023-11-21T10:27:37;100971.78;;;6.47;100.00
8160;BME280;27404;52.398;9.646;2023-11-21T10:30:05;100976.31;;;6.33;100.00
8160;BME280;27404;52.398;9.646;2023-11-21T10:32:31;100975.50;;;6.40;100.00
8160;BME280;27404;52.398;9.646;2023-11-21T10:34:59;100976.94;;;6.35;100.00
8160;BME280;27404;52.398;9.646;2023-11-21T10:37:35;100974.59;;;6.26;100.00
8160;BME280;27404;52.398;9.646;2023-11-21T10:40:01;100985.50;;;6.39;100.00
8160;BME280;27404;52.398;9.646;2023-11-21T10:42:27;100988.56;;;6.58;100.00
8160;BME280;27404;52.398;9.646;2023-11-21T10:44:53;100990.94;;;6.39;100.00
8160;BME280;27404;52.398;9.646;2023-11-21T10:47:19;100995.28;;;6.27;100.00
8160;BME280;27404;52.398;9.646;2023-11-21T10:49:49;100997.34;;;6.25;100.00
8160;BME280;27404;52.398;9.646;2023-11-21T10:52:15;101008.66;;;6.35;100.00
8160;BME280;27404;52.398;9.646;2023-11-21T10:54:43;101001.38;;;6.35;100.00
8160;BME280;27404;52.398;9.646;2023-11-21T10:57:10;101000.03;;;6.53;100.00
8160;BME280;27404;52.398;9.646;2023-11-21T10:59:36;101003.63;;;6.60;100.00
8160;BME280;27404;52.398;9.646;2023-11-21T11:02:23;101004.28;;;6.34;100.00
8160;BME280;27404;52.398;9.646;2023-11-21T11:04:52;101005.66;;;6.51;100.00
8160;BME280;27404;52.398;9.646;2023-11-21T11:07:17;101013.03;;;6.64;100.00
8160;BME280;27404;52.398;9.646;2023-11-21T11:09:45;101011.25;;;6.78;100.00
8160;BME280;27404;52.398;9.646;2023-11-21T11:12:12;101012.94;;;6.86;100.00
8160;BME280;27404;52.398;9.646;2023-11-21T11:14:41;101014.19;;;6.84;100.00
8160;BME280;27404;52.398;9.646;2023-11-21T11:17:09;101009.41;;;6.86;100.00
8160;BME280;27404;52.398;9.646;2023-11-21T11:19:36;101009.66;;;6.56;100.00
8160;BME280;27404;52.398;9.646;2023-11-21T11:22:32;101014.38;;;6.82;100.00
8160;BME280;27404;52.398;9.646;2023-11-21T11:25:24;101014.28;;;6.62;100.00
8160;BME280;27404;52.398;9.646;2023-11-21T11:28:08;101017.38;;;6.52;100.00
8160;BME280;27404;52.398;9.646;2023-11-21T11:33:59;101031.44;;;6.34;100.00
8160;BME280;27404;52.398;9.646;2023-11-21T11:36:40;101034.00;;;6.42;100.00
8160;BME280;27404;52.398;9.646;2023-11-21T11:39:37;101034.47;;;6.46;100.00
8160;BME280;27404;52.398;9.646;2023-11-21T11:42:13;101041.19;;;6.57;100.00
8160;BME280;27404;52.398;9.646;2023-11-21T11:47:26;101039.88;;;6.46;100.00
8160;BME280;27404;52.398;9.646;2023-11-21T11:50:00;101045.41;;;6.59;100.00
8160;BME280;27404;52.398;9.646;2023-11-21T11:55:02;101053.66;;;6.44;100.00
8160;BME280;27404;52.398;9.646;2023-11-21T11:57:31;101047.91;;;6.61;100.00
8160;BME280;27404;52.398;9.646;2023-11-21T12:00:16;101052.97;;;6.71;100.00
8160;BME280;27404;52.398;9.646;2023-11-21T12:02:54;101057.69;;;6.84;100.00
8160;BME280;27404;52.398;9.646;2023-11-21T12:05:22;101052.88;;;6.86;100.00
8160;BME280;27404;52.398;9.646;2023-11-21T12:07:56;101060.03;;;7.00;100.00
8160;BME280;27404;52.398;9.646;2023-11-21T12:10:30;101060.16;;;6.78;100.00
8160;BME280;27404;52.398;9.646;2023-11-21T12:13:06;101056.34;;;6.73;100.00
8160;BME280;27404;52.398;9.646;2023-11-21T12:15:36;101064.88;;;6.70;100.00
8160;BME280;27404;52.398;9.646;2023-11-21T12:18:02;101073.63;;;6.58;100.00
8160;BME280;27404;52.398;9.646;2023-11-21T12:20:30;101082.59;;;6.59;100.00
8160;BME280;27404;52.398;9.646;2023-11-21T12:23:00;101070.19;;;6.49;100.00
8160;BME280;27404;52.398;9.646;2023-11-21T12:25:27;101081.69;;;6.51;100.00
8160;BME280;27404;52.398;9.646;2023-11-21T12:28:00;101094.75;;;6.63;100.00
8160;BME280;27404;52.398;9.646;2023-11-21T12:30:27;101088.88;;;6.59;100.00
8160;BME280;27404;52.398;9.646;2023-11-21T12:33:01;101095.81;;;6.69;100.00
8160;BME280;27404;52.398;9.646;2023-11-21T12:35:32;101094.94;;;6.61;100.00
8160;BME280;27404;52.398;9.646;2023-11-21T12:38:01;101107.94;;;6.66;100.00
8160;BME280;27404;52.398;9.646;2023-11-21T12:40:35;101107.03;;;6.59;100.00
8160;BME280;27404;52.398;9.646;2023-11-21T12:43:01;101115.47;;;6.71;100.00
8160;BME280;27404;52.398;9.646;2023-11-21T12:45:29;101112.44;;;6.87;100.00
8160;BME280;27404;52.398;9.646;2023-11-21T12:47:57;101115.97;;;6.81;100.00
8160;BME280;27404;52.398;9.646;2023-11-21T12:50:30;101111.53;;;6.73;100.00
8160;BME280;27404;52.398;9.646;2023-11-21T12:53:19;101114.53;;;6.57;100.00
8160;BME280;27404;52.398;9.646;2023-11-21T12:55:44;101115.22;;;6.65;100.00
8160;BME280;27404;52.398;9.646;2023-11-21T12:58:15;101124.47;;;6.71;100.00
8160;BME280;27404;52.398;9.646;2023-11-21T13:00:47;101120.66;;;6.65;100.00
8160;BME280;27404;52.398;9.646;2023-11-21T13:03:15;101118.38;;;6.62;100.00
8160;BME280;27404;52.398;9.646;2023-11-21T13:05:44;101107.00;;;6.52;100.00
8160;BME280;27404;52.398;9.646;2023-11-21T13:08:12;101116.06;;;6.66;100.00
8160;BME280;27404;52.398;9.646;2023-11-21T13:10:40;101124.00;;;6.67;100.00